sensor_id;sensor_type;location;lat;lon;timestamp;P1;durP1;ratioP1;P2;durP2;ratioP2
45274;SDS011;31019;43.780;25.948;2023-08-06T00:01:52;42.95;;;39.08;;
45274;SDS011;31019;43.780;25.948;2023-08-06T00:04:19;41.92;;;38.15;;
45274;SDS011;31019;43.780;25.948;2023-08-06T00:06:46;42.78;;;39.28;;
45274;SDS011;31019;43.780;25.948;2023-08-06T00:09:13;41.53;;;37.90;;
45274;SDS011;31019;43.780;25.948;2023-08-06T00:11:41;41.50;;;37.80;;
45274;SDS011;31019;43.780;25.948;2023-08-06T00:14:09;44.15;;;40.20;;
45274;SDS011;31019;43.780;25.948;2023-08-06T00:16:36;44.97;;;41.17;;
45274;SDS011;31019;43.780;25.948;2023-08-06T00:19:03;44.17;;;39.65;;
45274;SDS011;31019;43.780;25.948;2023-08-06T00:21:30;46.30;;;41.95;;
45274;SDS011;31019;43.780;25.948;2023-08-06T00:23:56;47.90;;;43.45;;
45274;SDS011;31019;43.780;25.948;2023-08-06T00:26:23;47.25;;;43.35;;
45274;SDS011;31019;43.780;25.948;2023-08-06T00:28:52;46.83;;;42.35;;
45274;SDS011;31019;43.780;25.948;2023-08-06T00:31:19;45.38;;;41.10;;
45274;SDS011;31019;43.780;25.948;2023-08-06T00:33:46;44.15;;;39.92;;
45274;SDS011;31019;43.780;25.948;2023-08-06T00:36:14;49.17;;;44.85;;
45274;SDS011;31019;43.780;25.948;2023-08-06T00:38:41;42.88;;;39.00;;
45274;SDS011;31019;43.780;25.948;2023-08-06T00:41:08;45.90;;;41.90;;
45274;SDS011;31019;43.780;25.948;2023-08-06T00:43:35;44.60;;;40.53;;
45274;SDS011;31019;43.780;25.948;2023-08-06T00:46:04;45.63;;;41.30;;
45274;SDS011;31019;43.780;25.948;2023-08-06T00:48:32;42.67;;;38.92;;
45274;SDS011;31019;43.780;25.948;2023-08-06T00:51:00;45.08;;;41.17;;
45274;SDS011;31019;43.780;25.948;2023-08-06T00:53:28;46.70;;;43.00;;
45274;SDS011;31019;43.780;25.948;2023-08-06T00:55:54;44.92;;;41.42;;
45274;SDS011;31019;43.780;25.948;2023-08-06T00:58:22;41.10;;;37.60;;
45274;SDS011;31019;43.780;25.948;2023-08-06T01:00:49;41.08;;;37.72;;
45274;SDS011;31019;43.780;25.948;2023-08-06T01:03:17;43.75;;;40.45;;
45274;SDS011;31019;43.780;25.948;2023-08-06T01:05:44;43.55;;;40.03;;
45274;SDS011;31019;43.780;25.948;2023-08-06T01:08:15;42.67;;;39.28;;
45274;SDS011;31019;43.780;25.948;2023-08-06T01:13:30;45.78;;;42.40;;
45274;SDS011;31019;43.780;25.948;2023-08-06T01:15:59;42.00;;;38.38;;
45274;SDS011;31019;43.780;25.948;2023-08-06T01:18:29;41.88;;;38.17;;
45274;SDS011;31019;43.780;25.948;2023-08-06T01:20:58;39.13;;;35.45;;
45274;SDS011;31019;43.780;25.948;2023-08-06T01:23:24;42.30;;;39.10;;
45274;SDS011;31019;43.780;25.948;2023-08-06T01:25:55;44.30;;;40.63;;
45274;SDS011;31019;43.780;25.948;2023-08-06T01:28:32;43.95;;;40.40;;
45274;SDS011;31019;43.780;25.948;2023-08-06T01:31:07;44.47;;;40.03;;
45274;SDS011;31019;43.780;25.948;2023-08-06T01:33:42;43.00;;;39.17;;
45274;SDS011;31019;43.780;25.948;2023-08-06T01:36:13;44.28;;;40.10;;
45274;SDS011;31019;43.780;25.948;2023-08-06T01:38:42;44.85;;;40.50;;
45274;SDS011;31019;43.780;25.948;2023-08-06T01:41:09;46.97;;;42.10;;
45274;SDS011;31019;43.780;25.948;2023-08-06T01:43:36;47.13;;;42.45;;
45274;SDS011;31019;43.780;25.948;2023-08-06T01:46:03;40.30;;;36.15;;
45274;SDS011;31019;43.780;25.948;2023-08-06T01:48:30;42.38;;;38.75;;
45274;SDS011;31019;43.780;25.948;2023-08-06T01:50:57;34.72;;;31.63;;
45274;SDS011;31019;43.780;25.948;2023-08-06T01:53:25;37.53;;;33.92;;
45274;SDS011;31019;43.780;25.948;2023-08-06T01:55:52;40.25;;;36.88;;
45274;SDS011;31019;43.780;25.948;2023-08-06T01:58:19;39.70;;;36.10;;
45274;SDS011;31019;43.780;25.948;2023-08-06T02:00:46;45.03;;;41.60;;
45274;SDS011;31019;43.780;25.948;2023-08-06T02:03:13;39.80;;;36.88;;
45274;SDS011;31019;43.780;25.948;2023-08-06T02:05:40;41.70;;;38.50;;
45274;SDS011;31019;43.780;25.948;2023-08-06T02:08:06;37.15;;;33.95;;
45274;SDS011;31019;43.780;25.948;2023-08-06T02:10:35;36.35;;;33.45;;
45274;SDS011;31019;43.780;25.948;2023-08-06T02:13:02;32.70;;;30.10;;
45274;SDS011;31019;43.780;25.948;2023-08-06T02:15:28;34.92;;;32.25;;
45274;SDS011;31019;43.780;25.948;2023-08-06T02:17:55;33.80;;;31.27;;
45274;SDS011;31019;43.780;25.948;2023-08-06T02:20:22;35.63;;;32.85;;
45274;SDS011;31019;43.780;25.948;2023-08-06T02:22:49;33.70;;;31.08;;
45274;SDS011;31019;43.780;25.948;2023-08-06T02:25:16;34.90;;;32.28;;
45274;SDS011;31019;43.780;25.948;2023-08-06T02:27:44;31.23;;;29.02;;
45274;SDS011;31019;43.780;25.948;2023-08-06T02:30:11;33.15;;;30.33;;
45274;SDS011;31019;43.780;25.948;2023-08-06T02:32:39;35.08;;;32.38;;
45274;SDS011;31019;43.780;25.948;2023-08-06T02:35:06;33.92;;;31.33;;
45274;SDS011;31019;43.780;25.948;2023-08-06T02:37:33;35.05;;;32.20;;
45274;SDS011;31019;43.780;25.948;2023-08-06T02:40:00;32.28;;;29.73;;
45274;SDS011;31019;43.780;25.948;2023-08-06T02:42:28;33.03;;;30.73;;
45274;SDS011;31019;43.780;25.948;2023-08-06T02:44:56;37.50;;;34.53;;
45274;SDS011;31019;43.780;25.948;2023-08-06T02:47:23;37.85;;;35.03;;
45274;SDS011;31019;43.780;25.948;2023-08-06T02:49:50;36.20;;;33.60;;
45274;SDS011;31019;43.780;25.948;2023-08-06T02:52:17;34.50;;;32.03;;
45274;SDS011;31019;43.780;25.948;2023-08-06T02:54:44;44.85;;;41.95;;
45274;SDS011;31019;43.780;25.948;2023-08-06T02:57:11;43.70;;;40.53;;
45274;SDS011;31019;43.780;25.948;2023-08-06T02:59:38;29.58;;;27.30;;
45274;SDS011;31019;43.780;25.948;2023-08-06T03:02:06;33.33;;;30.92;;
45274;SDS011;31019;43.780;25.948;2023-08-06T03:04:33;30.45;;;28.27;;
45274;SDS011;31019;43.780;25.948;2023-08-06T03:07:00;26.40;;;24.40;;
45274;SDS011;31019;43.780;25.948;2023-08-06T03:09:27;26.08;;;23.83;;
45274;SDS011;31019;43.780;25.948;2023-08-06T03:11:54;26.20;;;24.20;;
45274;SDS011;31019;43.780;25.948;2023-08-06T03:14:21;24.80;;;22.75;;
45274;SDS011;31019;43.780;25.948;2023-08-06T03:16:48;25.20;;;23.30;;
45274;SDS011;31019;43.780;25.948;2023-08-06T03:19:16;24.05;;;21.77;;
45274;SDS011;31019;43.780;25.948;2023-08-06T03:21:43;23.77;;;21.58;;
45274;SDS011;31019;43.780;25.948;2023-08-06T03:24:09;23.20;;;21.30;;
45274;SDS011;31019;43.780;25.948;2023-08-06T03:26:36;24.13;;;21.77;;
45274;SDS011;31019;43.780;25.948;2023-08-06T03:29:03;23.77;;;21.65;;
45274;SDS011;31019;43.780;25.948;2023-08-06T03:31:30;24.25;;;22.15;;
45274;SDS011;31019;43.780;25.948;2023-08-06T03:33:57;24.10;;;21.90;;
45274;SDS011;31019;43.780;25.948;2023-08-06T03:36:26;23.20;;;21.20;;
45274;SDS011;31019;43.780;25.948;2023-08-06T03:38:53;22.55;;;20.55;;
45274;SDS011;31019;43.780;25.948;2023-08-06T03:41:20;23.60;;;21.40;;
45274;SDS011;31019;43.780;25.948;2023-08-06T03:43:49;24.52;;;22.33;;
45274;SDS011;31019;43.780;25.948;2023-08-06T03:46:16;24.33;;;22.33;;
45274;SDS011;31019;43.780;25.948;2023-08-06T03:48:45;24.23;;;21.58;;
45274;SDS011;31019;43.780;25.948;2023-08-06T03:51:12;24.27;;;22.17;;
45274;SDS011;31019;43.780;25.948;2023-08-06T03:53:41;25.10;;;22.95;;
45274;SDS011;31019;43.780;25.948;2023-08-06T03:56:07;24.80;;;22.60;;
45274;SDS011;31019;43.780;25.948;2023-08-06T03:58:34;23.80;;;21.75;;
45274;SDS011;31019;43.780;25.948;2023-08-06T04:01:02;23.88;;;21.90;;
45274;SDS011;31019;43.780;25.948;2023-08-06T04:03:29;24.33;;;22.23;;
45274;SDS011;31019;43.780;25.948;2023-08-06T04:05:56;23.48;;;21.25;;
45274;SDS011;31019;43.780;25.948;2023-08-06T04:08:23;23.90;;;21.90;;
45274;SDS011;31019;43.780;25.948;2023-08-06T04:10:51;23.70;;;21.55;;
45274;SDS011;31019;43.780;25.948;2023-08-06T04:13:19;22.80;;;20.90;;
45274;SDS011;31019;43.780;25.948;2023-08-06T04:15:46;22.13;;;20.25;;
45274;SDS011;31019;43.780;25.948;2023-08-06T04:18:13;24.55;;;22.20;;
45274;SDS011;31019;43.780;25.948;2023-08-06T04:20:43;25.40;;;22.90;;
45274;SDS011;31019;43.780;25.948;2023-08-06T04:23:10;23.70;;;21.50;;
45274;SDS011;31019;43.780;25.948;2023-08-06T04:25:38;23.33;;;21.17;;
45274;SDS011;31019;43.780;25.948;2023-08-06T04:28:06;23.40;;;21.40;;
45274;SDS011;31019;43.780;25.948;2023-08-06T04:30:34;23.42;;;21.33;;
45274;SDS011;31019;43.780;25.948;2023-08-06T04:33:01;23.63;;;21.73;;
45274;SDS011;31019;43.780;25.948;2023-08-06T04:35:28;24.88;;;22.77;;
45274;SDS011;31019;43.780;25.948;2023-08-06T04:37:54;24.42;;;22.33;;
45274;SDS011;31019;43.780;25.948;2023-08-06T04:40:21;24.73;;;22.63;;
45274;SDS011;31019;43.780;25.948;2023-08-06T04:42:48;25.75;;;23.65;;
45274;SDS011;31019;43.780;25.948;2023-08-06T04:45:16;24.80;;;22.45;;
45274;SDS011;31019;43.780;25.948;2023-08-06T04:47:43;26.00;;;23.70;;
45274;SDS011;31019;43.780;25.948;2023-08-06T04:50:10;23.70;;;21.70;;
45274;SDS011;31019;43.780;25.948;2023-08-06T04:52:37;24.08;;;21.85;;
45274;SDS011;31019;43.780;25.948;2023-08-06T04:55:04;23.65;;;21.75;;
45274;SDS011;31019;43.780;25.948;2023-08-06T04:57:32;24.17;;;22.13;;
45274;SDS011;31019;43.780;25.948;2023-08-06T04:59:58;23.50;;;21.50;;
45274;SDS011;31019;43.780;25.948;2023-08-06T05:02:27;22.67;;;20.77;;
45274;SDS011;31019;43.780;25.948;2023-08-06T05:04:54;23.70;;;21.70;;
45274;SDS011;31019;43.780;25.948;2023-08-06T05:07:20;22.75;;;20.75;;
45274;SDS011;31019;43.780;25.948;2023-08-06T05:09:47;23.10;;;21.20;;
45274;SDS011;31019;43.780;25.948;2023-08-06T05:12:14;24.77;;;22.88;;
45274;SDS011;31019;43.780;25.948;2023-08-06T05:14:41;22.52;;;20.55;;
45274;SDS011;31019;43.780;25.948;2023-08-06T05:17:08;22.05;;;20.25;;
45274;SDS011;31019;43.780;25.948;2023-08-06T05:19:36;22.58;;;20.77;;
45274;SDS011;31019;43.780;25.948;2023-08-06T05:22:03;22.30;;;20.60;;
45274;SDS011;31019;43.780;25.948;2023-08-06T05:24:30;22.50;;;20.70;;
45274;SDS011;31019;43.780;25.948;2023-08-06T05:26:57;23.92;;;21.92;;
45274;SDS011;31019;43.780;25.948;2023-08-06T05:29:24;23.85;;;21.92;;
45274;SDS011;31019;43.780;25.948;2023-08-06T05:31:52;24.00;;;22.08;;
45274;SDS011;31019;43.780;25.948;2023-08-06T05:34:19;24.00;;;22.10;;
45274;SDS011;31019;43.780;25.948;2023-08-06T05:36:49;24.75;;;22.75;;
45274;SDS011;31019;43.780;25.948;2023-08-06T05:39:17;23.50;;;21.63;;
45274;SDS011;31019;43.780;25.948;2023-08-06T05:41:44;22.45;;;20.55;;
45274;SDS011;31019;43.780;25.948;2023-08-06T05:44:11;23.02;;;21.23;;
45274;SDS011;31019;43.780;25.948;2023-08-06T05:46:38;22.80;;;21.00;;
45274;SDS011;31019;43.780;25.948;2023-08-06T05:49:05;23.95;;;22.05;;
45274;SDS011;31019;43.780;25.948;2023-08-06T05:51:32;23.08;;;21.27;;
45274;SDS011;31019;43.780;25.948;2023-08-06T05:53:59;23.27;;;21.35;;
45274;SDS011;31019;43.780;25.948;2023-08-06T05:56:26;21.50;;;19.58;;
45274;SDS011;31019;43.780;25.948;2023-08-06T05:58:53;19.90;;;18.30;;
45274;SDS011;31019;43.780;25.948;2023-08-06T06:01:20;21.75;;;20.05;;
45274;SDS011;31019;43.780;25.948;2023-08-06T06:03:47;20.80;;;19.20;;
45274;SDS011;31019;43.780;25.948;2023-08-06T06:06:16;21.20;;;19.35;;
45274;SDS011;31019;43.780;25.948;2023-08-06T06:08:43;20.95;;;19.35;;
45274;SDS011;31019;43.780;25.948;2023-08-06T06:11:12;21.90;;;20.30;;
45274;SDS011;31019;43.780;25.948;2023-08-06T06:13:39;21.25;;;19.30;;
45274;SDS011;31019;43.780;25.948;2023-08-06T06:16:06;22.33;;;20.63;;
45274;SDS011;31019;43.780;25.948;2023-08-06T06:18:33;22.65;;;20.90;;
45274;SDS011;31019;43.780;25.948;2023-08-06T06:21:00;23.50;;;21.80;;
45274;SDS011;31019;43.780;25.948;2023-08-06T06:23:27;24.08;;;21.90;;
45274;SDS011;31019;43.780;25.948;2023-08-06T06:25:54;24.55;;;22.85;;
45274;SDS011;31019;43.780;25.948;2023-08-06T06:28:22;24.17;;;22.40;;
45274;SDS011;31019;43.780;25.948;2023-08-06T06:30:49;24.40;;;22.60;;
45274;SDS011;31019;43.780;25.948;2023-08-06T06:33:16;24.88;;;22.88;;
45274;SDS011;31019;43.780;25.948;2023-08-06T06:35:43;24.60;;;22.80;;
45274;SDS011;31019;43.780;25.948;2023-08-06T06:38:10;24.00;;;22.30;;
45274;SDS011;31019;43.780;25.948;2023-08-06T06:40:37;23.88;;;21.88;;
45274;SDS011;31019;43.780;25.948;2023-08-06T06:43:03;24.88;;;23.17;;
45274;SDS011;31019;43.780;25.948;2023-08-06T06:45:32;24.55;;;22.95;;
45274;SDS011;31019;43.780;25.948;2023-08-06T06:47:59;22.77;;;21.20;;
45274;SDS011;31019;43.780;25.948;2023-08-06T06:50:25;22.88;;;21.25;;
45274;SDS011;31019;43.780;25.948;2023-08-06T06:52:52;23.02;;;21.40;;
45274;SDS011;31019;43.780;25.948;2023-08-06T06:55:19;21.40;;;19.63;;
45274;SDS011;31019;43.780;25.948;2023-08-06T06:57:46;21.65;;;19.92;;
45274;SDS011;31019;43.780;25.948;2023-08-06T07:00:13;23.27;;;21.63;;
45274;SDS011;31019;43.780;25.948;2023-08-06T07:02:42;27.50;;;22.05;;
45274;SDS011;31019;43.780;25.948;2023-08-06T07:05:09;24.25;;;22.25;;
45274;SDS011;31019;43.780;25.948;2023-08-06T07:07:36;25.08;;;23.05;;
45274;SDS011;31019;43.780;25.948;2023-08-06T07:10:04;25.75;;;23.85;;
45274;SDS011;31019;43.780;25.948;2023-08-06T07:12:32;24.75;;;22.85;;
45274;SDS011;31019;43.780;25.948;2023-08-06T07:14:59;26.73;;;24.73;;
45274;SDS011;31019;43.780;25.948;2023-08-06T07:17:27;22.80;;;20.77;;
45274;SDS011;31019;43.780;25.948;2023-08-06T07:19:55;22.05;;;20.30;;
45274;SDS011;31019;43.780;25.948;2023-08-06T07:22:22;24.17;;;22.38;;
45274;SDS011;31019;43.780;25.948;2023-08-06T07:24:49;23.30;;;21.45;;
45274;SDS011;31019;43.780;25.948;2023-08-06T07:27:15;24.70;;;22.80;;
45274;SDS011;31019;43.780;25.948;2023-08-06T07:29:42;23.15;;;21.45;;
45274;SDS011;31019;43.780;25.948;2023-08-06T07:32:09;24.90;;;22.90;;
45274;SDS011;31019;43.780;25.948;2023-08-06T07:34:36;23.73;;;21.95;;
45274;SDS011;31019;43.780;25.948;2023-08-06T07:37:05;26.20;;;24.20;;
45274;SDS011;31019;43.780;25.948;2023-08-06T07:39:32;24.05;;;22.23;;
45274;SDS011;31019;43.780;25.948;2023-08-06T07:41:59;24.02;;;22.23;;
45274;SDS011;31019;43.780;25.948;2023-08-06T07:44:27;25.52;;;23.63;;
45274;SDS011;31019;43.780;25.948;2023-08-06T07:46:54;22.88;;;21.17;;
45274;SDS011;31019;43.780;25.948;2023-08-06T07:49:21;25.55;;;23.70;;
45274;SDS011;31019;43.780;25.948;2023-08-06T07:51:48;22.10;;;20.45;;
45274;SDS011;31019;43.780;25.948;2023-08-06T07:54:18;22.13;;;20.42;;
45274;SDS011;31019;43.780;25.948;2023-08-06T07:56:45;22.65;;;20.85;;
45274;SDS011;31019;43.780;25.948;2023-08-06T07:59:11;24.88;;;23.08;;
45274;SDS011;31019;43.780;25.948;2023-08-06T08:01:38;24.00;;;22.17;;
45274;SDS011;31019;43.780;25.948;2023-08-06T08:04:05;25.48;;;23.63;;
45274;SDS011;31019;43.780;25.948;2023-08-06T08:06:33;22.02;;;20.38;;
45274;SDS011;31019;43.780;25.948;2023-08-06T08:09:00;21.15;;;19.38;;
45274;SDS011;31019;43.780;25.948;2023-08-06T08:11:28;22.08;;;20.27;;
45274;SDS011;31019;43.780;25.948;2023-08-06T08:13:55;23.83;;;22.02;;
45274;SDS011;31019;43.780;25.948;2023-08-06T08:16:22;26.58;;;24.77;;
45274;SDS011;31019;43.780;25.948;2023-08-06T08:18:49;24.70;;;22.92;;
45274;SDS011;31019;43.780;25.948;2023-08-06T08:21:16;24.05;;;22.15;;
45274;SDS011;31019;43.780;25.948;2023-08-06T08:23:43;23.17;;;21.38;;
45274;SDS011;31019;43.780;25.948;2023-08-06T08:26:10;23.40;;;21.65;;
45274;SDS011;31019;43.780;25.948;2023-08-06T08:28:38;22.77;;;21.08;;
45274;SDS011;31019;43.780;25.948;2023-08-06T08:31:07;23.83;;;22.08;;
45274;SDS011;31019;43.780;25.948;2023-08-06T08:33:34;24.27;;;22.25;;
45274;SDS011;31019;43.780;25.948;2023-08-06T08:36:02;22.95;;;21.23;;
45274;SDS011;31019;43.780;25.948;2023-08-06T08:38:29;22.67;;;20.98;;
45274;SDS011;31019;43.780;25.948;2023-08-06T08:40:56;25.48;;;23.48;;
45274;SDS011;31019;43.780;25.948;2023-08-06T08:43:23;24.65;;;22.77;;
45274;SDS011;31019;43.780;25.948;2023-08-06T08:45:52;25.23;;;23.42;;
45274;SDS011;31019;43.780;25.948;2023-08-06T08:48:21;24.58;;;22.80;;
45274;SDS011;31019;43.780;25.948;2023-08-06T08:50:49;24.65;;;22.67;;
45274;SDS011;31019;43.780;25.948;2023-08-06T08:53:16;24.48;;;22.75;;
45274;SDS011;31019;43.780;25.948;2023-08-06T08:55:43;23.92;;;22.15;;
45274;SDS011;31019;43.780;25.948;2023-08-06T08:58:13;24.80;;;23.00;;
45274;SDS011;31019;43.780;25.948;2023-08-06T09:00:40;26.98;;;24.98;;
45274;SDS011;31019;43.780;25.948;2023-08-06T09:03:10;32.00;;;26.60;;
45274;SDS011;31019;43.780;25.948;2023-08-06T09:05:37;26.67;;;24.67;;
45274;SDS011;31019;43.780;25.948;2023-08-06T09:08:11;27.75;;;24.48;;
45274;SDS011;31019;43.780;25.948;2023-08-06T09:10:43;25.42;;;23.10;;
45274;SDS011;31019;43.780;25.948;2023-08-06T09:13:14;23.85;;;21.95;;
45274;SDS011;31019;43.780;25.948;2023-08-06T09:15:42;24.83;;;22.65;;
45274;SDS011;31019;43.780;25.948;2023-08-06T09:18:11;48.50;;;24.73;;
45274;SDS011;31019;43.780;25.948;2023-08-06T09:20:39;28.80;;;23.67;;
45274;SDS011;31019;43.780;25.948;2023-08-06T09:23:09;26.20;;;24.10;;
45274;SDS011;31019;43.780;25.948;2023-08-06T09:25:38;44.33;;;25.27;;
45274;SDS011;31019;43.780;25.948;2023-08-06T09:28:06;64.20;;;26.30;;
45274;SDS011;31019;43.780;25.948;2023-08-06T09:30:35;38.78;;;22.77;;
45274;SDS011;31019;43.780;25.948;2023-08-06T09:33:03;88.82;;;29.27;;
45274;SDS011;31019;43.780;25.948;2023-08-06T09:35:36;38.85;;;26.20;;
45274;SDS011;31019;43.780;25.948;2023-08-06T09:38:05;61.17;;;28.58;;
45274;SDS011;31019;43.780;25.948;2023-08-06T09:40:33;26.67;;;24.40;;
45274;SDS011;31019;43.780;25.948;2023-08-06T09:43:00;27.95;;;25.35;;
45274;SDS011;31019;43.780;25.948;2023-08-06T09:45:28;28.50;;;25.60;;
45274;SDS011;31019;43.780;25.948;2023-08-06T09:47:58;28.25;;;25.50;;
45274;SDS011;31019;43.780;25.948;2023-08-06T09:50:28;29.35;;;26.60;;
45274;SDS011;31019;43.780;25.948;2023-08-06T09:52:57;28.77;;;26.13;;
45274;SDS011;31019;43.780;25.948;2023-08-06T09:55:25;29.92;;;26.77;;
45274;SDS011;31019;43.780;25.948;2023-08-06T09:57:52;27.38;;;25.08;;
45274;SDS011;31019;43.780;25.948;2023-08-06T10:00:20;30.95;;;24.55;;
45274;SDS011;31019;43.780;25.948;2023-08-06T10:02:47;78.68;;;30.33;;
45274;SDS011;31019;43.780;25.948;2023-08-06T10:05:19;26.83;;;24.13;;
45274;SDS011;31019;43.780;25.948;2023-08-06T10:07:47;26.50;;;23.83;;
45274;SDS011;31019;43.780;25.948;2023-08-06T10:10:19;29.30;;;24.98;;
45274;SDS011;31019;43.780;25.948;2023-08-06T10:12:46;24.80;;;22.70;;
45274;SDS011;31019;43.780;25.948;2023-08-06T10:15:17;23.52;;;21.52;;
45274;SDS011;31019;43.780;25.948;2023-08-06T10:17:49;23.90;;;21.98;;
45274;SDS011;31019;43.780;25.948;2023-08-06T10:20:19;25.63;;;23.08;;
45274;SDS011;31019;43.780;25.948;2023-08-06T10:22:55;28.80;;;26.20;;
45274;SDS011;31019;43.780;25.948;2023-08-06T10:25:28;30.17;;;27.05;;
45274;SDS011;31019;43.780;25.948;2023-08-06T10:27:59;29.02;;;26.13;;
45274;SDS011;31019;43.780;25.948;2023-08-06T10:30:28;31.63;;;28.42;;
45274;SDS011;31019;43.780;25.948;2023-08-06T10:32:57;29.45;;;26.80;;
45274;SDS011;31019;43.780;25.948;2023-08-06T10:35:29;25.30;;;23.30;;
45274;SDS011;31019;43.780;25.948;2023-08-06T10:37:58;29.25;;;26.63;;
45274;SDS011;31019;43.780;25.948;2023-08-06T10:40:25;28.70;;;26.00;;
45274;SDS011;31019;43.780;25.948;2023-08-06T10:42:56;29.85;;;27.25;;
45274;SDS011;31019;43.780;25.948;2023-08-06T10:45:25;32.30;;;29.38;;
45274;SDS011;31019;43.780;25.948;2023-08-06T10:47:54;29.42;;;27.13;;
45274;SDS011;31019;43.780;25.948;2023-08-06T10:50:21;29.75;;;27.25;;
45274;SDS011;31019;43.780;25.948;2023-08-06T10:52:48;26.88;;;24.75;;
45274;SDS011;31019;43.780;25.948;2023-08-06T10:55:22;29.02;;;26.63;;
45274;SDS011;31019;43.780;25.948;2023-08-06T10:57:49;29.52;;;27.10;;
45274;SDS011;31019;43.780;25.948;2023-08-06T11:00:17;29.02;;;26.52;;
45274;SDS011;31019;43.780;25.948;2023-08-06T11:02:45;29.90;;;27.40;;
45274;SDS011;31019;43.780;25.948;2023-08-06T11:05:15;30.25;;;27.63;;
45274;SDS011;31019;43.780;25.948;2023-08-06T11:07:42;29.90;;;27.20;;
45274;SDS011;31019;43.780;25.948;2023-08-06T11:10:10;30.70;;;27.90;;
45274;SDS011;31019;43.780;25.948;2023-08-06T11:12:37;30.42;;;27.58;;
45274;SDS011;31019;43.780;25.948;2023-08-06T11:15:05;29.48;;;26.88;;
45274;SDS011;31019;43.780;25.948;2023-08-06T11:17:34;29.92;;;27.52;;
45274;SDS011;31019;43.780;25.948;2023-08-06T11:20:02;29.33;;;26.88;;
45274;SDS011;31019;43.780;25.948;2023-08-06T11:22:30;28.73;;;26.08;;
45274;SDS011;31019;43.780;25.948;2023-08-06T11:24:57;29.35;;;26.95;;
45274;SDS011;31019;43.780;25.948;2023-08-06T11:27:26;29.23;;;26.77;;
45274;SDS011;31019;43.780;25.948;2023-08-06T11:29:55;30.55;;;27.70;;
45274;SDS011;31019;43.780;25.948;2023-08-06T11:32:22;29.95;;;27.55;;
45274;SDS011;31019;43.780;25.948;2023-08-06T11:34:50;30.20;;;27.60;;
45274;SDS011;31019;43.780;25.948;2023-08-06T11:37:20;28.98;;;26.30;;
45274;SDS011;31019;43.780;25.948;2023-08-06T11:39:48;27.52;;;25.20;;
45274;SDS011;31019;43.780;25.948;2023-08-06T11:42:15;27.60;;;25.30;;
45274;SDS011;31019;43.780;25.948;2023-08-06T11:44:42;26.33;;;24.08;;
45274;SDS011;31019;43.780;25.948;2023-08-06T11:47:12;27.30;;;24.80;;
45274;SDS011;31019;43.780;25.948;2023-08-06T11:49:40;28.65;;;26.10;;
45274;SDS011;31019;43.780;25.948;2023-08-06T11:52:13;30.50;;;27.80;;
45274;SDS011;31019;43.780;25.948;2023-08-06T11:54:43;24.83;;;22.63;;
45274;SDS011;31019;43.780;25.948;2023-08-06T11:57:11;27.30;;;24.90;;
45274;SDS011;31019;43.780;25.948;2023-08-06T11:59:38;28.17;;;25.67;;
45274;SDS011;31019;43.780;25.948;2023-08-06T12:02:07;29.23;;;26.67;;
45274;SDS011;31019;43.780;25.948;2023-08-06T12:07:28;28.10;;;25.70;;
45274;SDS011;31019;43.780;25.948;2023-08-06T12:09:55;26.95;;;24.52;;
45274;SDS011;31019;43.780;25.948;2023-08-06T12:12:22;26.25;;;23.95;;
45274;SDS011;31019;43.780;25.948;2023-08-06T12:14:49;25.90;;;23.60;;
45274;SDS011;31019;43.780;25.948;2023-08-06T12:17:16;25.77;;;23.58;;
45274;SDS011;31019;43.780;25.948;2023-08-06T12:19:45;26.15;;;23.75;;
45274;SDS011;31019;43.780;25.948;2023-08-06T12:22:13;25.30;;;23.17;;
45274;SDS011;31019;43.780;25.948;2023-08-06T12:24:42;24.90;;;22.80;;
45274;SDS011;31019;43.780;25.948;2023-08-06T12:27:10;25.27;;;23.08;;
45274;SDS011;31019;43.780;25.948;2023-08-06T12:29:40;26.13;;;23.85;;
45274;SDS011;31019;43.780;25.948;2023-08-06T12:32:07;25.13;;;23.02;;
45274;SDS011;31019;43.780;25.948;2023-08-06T12:34:34;24.98;;;22.83;;
45274;SDS011;31019;43.780;25.948;2023-08-06T12:37:01;25.33;;;23.23;;
45274;SDS011;31019;43.780;25.948;2023-08-06T12:39:29;25.17;;;22.92;;
45274;SDS011;31019;43.780;25.948;2023-08-06T12:41:59;24.95;;;22.75;;
45274;SDS011;31019;43.780;25.948;2023-08-06T12:44:26;26.25;;;24.00;;
45274;SDS011;31019;43.780;25.948;2023-08-06T12:46:53;26.38;;;24.27;;
45274;SDS011;31019;43.780;25.948;2023-08-06T12:49:20;25.13;;;22.80;;
45274;SDS011;31019;43.780;25.948;2023-08-06T12:51:47;25.02;;;22.88;;
45274;SDS011;31019;43.780;25.948;2023-08-06T12:54:15;24.80;;;22.70;;
45274;SDS011;31019;43.780;25.948;2023-08-06T12:56:43;28.38;;;26.08;;
45274;SDS011;31019;43.780;25.948;2023-08-06T12:59:11;27.90;;;25.23;;
45274;SDS011;31019;43.780;25.948;2023-08-06T13:01:38;29.00;;;26.45;;
45274;SDS011;31019;43.780;25.948;2023-08-06T13:04:05;28.08;;;25.77;;
45274;SDS011;31019;43.780;25.948;2023-08-06T13:06:32;26.73;;;24.42;;
45274;SDS011;31019;43.780;25.948;2023-08-06T13:09:01;25.90;;;23.55;;
45274;SDS011;31019;43.780;25.948;2023-08-06T13:11:29;24.40;;;22.25;;
45274;SDS011;31019;43.780;25.948;2023-08-06T13:13:58;24.65;;;22.45;;
45274;SDS011;31019;43.780;25.948;2023-08-06T13:16:31;25.15;;;22.83;;
45274;SDS011;31019;43.780;25.948;2023-08-06T13:18:58;24.77;;;22.58;;
45274;SDS011;31019;43.780;25.948;2023-08-06T13:21:34;24.92;;;22.73;;
45274;SDS011;31019;43.780;25.948;2023-08-06T13:24:02;26.33;;;24.20;;
45274;SDS011;31019;43.780;25.948;2023-08-06T13:26:30;25.40;;;23.20;;
45274;SDS011;31019;43.780;25.948;2023-08-06T13:28:57;25.85;;;23.63;;
45274;SDS011;31019;43.780;25.948;2023-08-06T13:31:24;25.88;;;23.67;;
45274;SDS011;31019;43.780;25.948;2023-08-06T13:33:53;24.98;;;22.98;;
45274;SDS011;31019;43.780;25.948;2023-08-06T13:36:21;27.48;;;25.48;;
45274;SDS011;31019;43.780;25.948;2023-08-06T13:38:48;24.73;;;22.80;;
45274;SDS011;31019;43.780;25.948;2023-08-06T13:41:15;25.30;;;23.30;;
45274;SDS011;31019;43.780;25.948;2023-08-06T13:43:44;24.23;;;22.13;;
45274;SDS011;31019;43.780;25.948;2023-08-06T13:46:12;25.00;;;23.00;;
45274;SDS011;31019;43.780;25.948;2023-08-06T13:48:41;25.42;;;23.33;;
45274;SDS011;31019;43.780;25.948;2023-08-06T13:51:10;26.23;;;23.80;;
45274;SDS011;31019;43.780;25.948;2023-08-06T13:53:38;25.20;;;23.20;;
45274;SDS011;31019;43.780;25.948;2023-08-06T13:56:06;25.88;;;23.75;;
45274;SDS011;31019;43.780;25.948;2023-08-06T13:58:34;25.75;;;23.55;;
45274;SDS011;31019;43.780;25.948;2023-08-06T14:01:02;24.20;;;22.30;;
45274;SDS011;31019;43.780;25.948;2023-08-06T14:03:28;24.40;;;22.42;;
45274;SDS011;31019;43.780;25.948;2023-08-06T14:05:55;25.60;;;23.60;;
45274;SDS011;31019;43.780;25.948;2023-08-06T14:08:24;26.05;;;23.95;;
45274;SDS011;31019;43.780;25.948;2023-08-06T14:10:51;24.30;;;22.20;;
45274;SDS011;31019;43.780;25.948;2023-08-06T14:13:18;25.50;;;23.33;;
45274;SDS011;31019;43.780;25.948;2023-08-06T14:15:45;25.65;;;23.55;;
45274;SDS011;31019;43.780;25.948;2023-08-06T14:18:13;27.30;;;25.02;;